Startpagina
METAR-TAF:

METAR-TAF

Vliegvelden :

Atlanta, Georgia, Verenigde Staten

Hartsfield-Jackson Atlanta International Airport

breedte: 33-38-25N, lengte: 084-25-37W, hoogte: 313 m

Actueel weer

Dit bericht is 44 minuten geleden gemaakt, om 12:52 UTC
Wind 4 kt uit het noordnoordwesten
Temperatuur 22°C
Vochtigheid 78%
Druk 1017 hPa
Zicht: 16.1 km
Weinig wolken op 20000 ft
Verspreide wolken op 25000 ft

METAR: KATL 191252Z 34004KT 10SM FEW200 SCT250 22/18 A3004 RMK AO2 SLP163 T02220178

Tijdstip: 09:36 (13:36 UTC)

Verwachting

Dit bericht is 2 uur en het 16 minuten geleden gemaakt, om 11:20 UTC
Verwachting geldig van 19 om 12 UTC tot 20 om 18 UTC
Wind 5 kt uit het noordwesten
Zicht: 10 km
Verspreide wolken op 25000 ft
Van 19 om 1700 UTC
Wind 4 kt uit het westen
Zicht: 10 km
Verspreide wolken op 5000 ft
Van 20 om 0200 UTC
Wind 4 kt uit het westzuidwesten
Zicht: 10 km
Verspreide wolken op 5000 ft

TAF: KATL 191120Z 1912/2018 32005KT P6SM SCT250 FM191700 28004KT P6SM SCT050 FM200200 25004KT P6SM SCT050

Waarnemingen en weersverwachtingen van meer dan 4000 vliegvelden (METAR en TAF).

De beschikbare stations zijn de gele en rode punten op de kaart.

Ga met uw muis naar het station om de naam te zien.

Klik dan om waarnemingen en weersverwachtingen te zien.

kaart wijzigen: klik op de groene knoppen met een zwart kruis om in te zoomen, op de groene knop met een streepje om uit te zoomen of op de groene pijlen voor aangrenzende kaarten.


METAR-TAF: